Time;durP1;ratioP1;P1;durP2;ratioP2;P2;SDS_P1;SDS_P2;PMS_P1;PMS_P2;Temp;Humidity;BMP_temperature;BMP_pressure;BME280_temperature;BME280_humidity;BME280_pressure;Samples;Min_cycle;Max_cycle;Signal;HPM_P1;HPM_P2
2023/04/14 00:00:37;;;;;;;0.10;0.10;;;5.90;99.90;;;;;;5065714;28;20285;-82
2023/04/14 00:03:02;;;;;;;0.10;0.10;;;6.00;99.90;;;;;;5061631;28;20421;-82
2023/04/14 00:05:29;;;;;;;0.10;0.10;;;6.10;99.90;;;;;;5061153;28;20620;-82
2023/04/14 00:07:54;;;;;;;0.00;0.00;;;6.10;99.90;;;;;;5061216;28;20190;-83
2023/04/14 00:10:20;;;;;;;0.10;0.10;;;6.20;99.90;;;;;;5064864;28;20198;-82
2023/04/14 00:12:46;;;;;;;0.10;0.10;;;6.10;99.90;;;;;;5062557;28;20210;-83
2023/04/14 00:15:11;;;;;;;0.10;0.10;;;6.10;99.90;;;;;;5061870;28;20205;-83
2023/04/14 00:17:37;;;;;;;0.10;0.10;;;6.10;99.90;;;;;;5063530;28;20186;-82
2023/04/14 00:20:03;;;;;;;0.10;0.10;;;6.00;99.90;;;;;;5059795;28;20207;-82
2023/04/14 00:22:28;;;;;;;0.10;0.10;;;6.00;99.90;;;;;;5059842;28;20192;-82
2023/04/14 00:24:54;;;;;;;0.10;0.10;;;6.00;99.90;;;;;;5063274;28;20678;-82
2023/04/14 00:27:20;;;;;;;0.00;0.00;;;5.90;99.90;;;;;;5064034;28;20499;-83
2023/04/14 00:29:45;;;;;;;0.10;0.10;;;5.90;99.90;;;;;;5062565;28;20285;-82
2023/04/14 00:32:11;;;;;;;0.10;0.10;;;5.80;99.90;;;;;;5063607;28;20186;-82
2023/04/14 00:34:36;;;;;;;0.10;0.10;;;5.70;99.90;;;;;;5057122;28;20205;-83
2023/04/14 00:37:02;;;;;;;0.10;0.10;;;5.70;99.90;;;;;;5061917;28;20183;-82
2023/04/14 00:39:27;;;;;;;0.10;0.10;;;5.70;99.90;;;;;;5058559;28;20216;-82
2023/04/14 00:41:53;;;;;;;0.10;0.10;;;5.70;99.90;;;;;;5061304;28;20189;-82
2023/04/14 00:44:18;;;;;;;0.10;0.10;;;5.70;99.90;;;;;;5063432;28;20208;-82
2023/04/14 00:46:44;;;;;;;0.10;0.10;;;5.50;99.90;;;;;;5060545;28;20214;-83
2023/04/14 00:49:10;;;;;;;0.10;0.10;;;5.40;99.90;;;;;;5058688;28;20199;-82
2023/04/14 00:51:36;;;;;;;0.10;0.10;;;5.40;99.90;;;;;;5058746;28;20193;-82
2023/04/14 00:54:09;;;;;;;0.10;0.10;;;5.30;99.90;;;;;;5063768;28;20435;-82
2023/04/14 00:56:35;;;;;;;0.00;0.00;;;5.30;99.90;;;;;;5060558;28;20201;-82
2023/04/14 00:59:01;;;;;;;0.10;0.10;;;5.30;99.90;;;;;;5059555;28;20220;-81
2023/04/14 01:01:32;;;;;;;0.10;0.10;;;5.30;99.90;;;;;;5061050;28;20203;-82
2023/04/14 01:03:57;;;;;;;0.10;0.10;;;5.30;99.90;;;;;;5063154;28;20728;-82
2023/04/14 01:06:23;;;;;;;0.10;0.10;;;5.20;99.90;;;;;;5062687;28;20194;-82
2023/04/14 01:08:49;;;;;;;0.00;0.00;;;5.10;99.90;;;;;;5062639;28;20184;-82
2023/04/14 01:11:29;;;;;;;0.10;0.10;;;4.80;99.90;;;;;;5057207;28;20190;-82
2023/04/14 01:14:05;;;;;;;0.10;0.10;;;4.80;99.90;;;;;;5063728;28;20262;-82
2023/04/14 01:16:35;;;;;;;0.10;0.10;;;4.90;99.90;;;;;;5061234;28;20201;-81
2023/04/14 01:19:03;;;;;;;0.10;0.10;;;5.00;99.90;;;;;;5061448;28;20189;-82
2023/04/14 01:21:34;;;;;;;0.10;0.10;;;5.00;99.90;;;;;;5062352;28;20201;-83
2023/04/14 01:24:21;;;;;;;0.10;0.10;;;5.00;99.90;;;;;;5062193;28;20666;-82
2023/04/14 01:26:51;;;;;;;0.10;0.10;;;4.90;99.90;;;;;;5058502;28;20303;-83
2023/04/14 01:29:47;;;;;;;0.10;0.10;;;4.80;99.90;;;;;;5057085;28;20765;-82
2023/04/14 01:32:20;;;;;;;0.10;0.10;;;4.90;99.90;;;;;;5062570;28;20187;-82
2023/04/14 01:34:54;;;;;;;0.10;0.10;;;4.90;99.90;;;;;;5057411;28;20213;-82
2023/04/14 01:37:44;;;;;;;0.03;0.03;;;4.90;99.90;;;;;;5062246;28;20264;-82
2023/04/14 01:40:14;;;;;;;0.10;0.10;;;4.70;99.90;;;;;;5063216;28;20265;-83
2023/04/14 01:42:46;;;;;;;0.10;0.10;;;4.70;99.90;;;;;;5056545;28;20295;-82
2023/04/14 01:45:22;;;;;;;0.10;0.10;;;4.60;99.90;;;;;;5063799;28;20206;-82
2023/04/14 01:47:49;;;;;;;0.10;0.10;;;4.60;99.90;;;;;;5055464;28;20190;-82
2023/04/14 01:50:16;;;;;;;0.10;0.10;;;4.60;99.90;;;;;;5058583;28;20178;-83
2023/04/14 01:52:46;;;;;;;0.37;0.37;;;4.70;99.90;;;;;;5061348;28;20213;-82
2023/04/14 01:55:15;;;;;;;0.03;0.03;;;4.70;99.90;;;;;;5062324;28;20229;-82
2023/04/14 01:57:43;;;;;;;0.10;0.10;;;4.80;99.90;;;;;;5053962;28;20553;-82
2023/04/14 02:00:10;;;;;;;0.10;0.10;;;4.90;99.90;;;;;;5061815;28;20184;-82
2023/04/14 02:02:38;;;;;;;0.10;0.10;;;4.90;99.90;;;;;;5059361;28;20220;-83
2023/04/14 02:05:07;;;;;;;0.10;0.10;;;5.10;99.90;;;;;;5060684;28;20211;-83
2023/04/14 02:07:34;;;;;;;0.10;0.10;;;5.10;99.90;;;;;;5064598;28;20177;-82
2023/04/14 02:10:00;;;;;;;0.10;0.10;;;5.10;99.90;;;;;;5064506;28;20733;-83
2023/04/14 02:12:27;;;;;;;0.10;0.10;;;5.10;99.90;;;;;;5061268;28;20184;-82
2023/04/14 02:14:54;;;;;;;0.10;0.10;;;5.20;99.90;;;;;;5064335;28;20206;-82
2023/04/14 02:17:20;;;;;;;0.10;0.10;;;5.10;99.90;;;;;;5067186;28;20651;-82
2023/04/14 02:19:48;;;;;;;0.10;0.10;;;5.20;99.90;;;;;;5064268;28;20187;-83
2023/04/14 02:22:13;;;;;;;0.10;0.10;;;5.10;99.90;;;;;;5065456;28;20686;-82
2023/04/14 02:24:39;;;;;;;0.10;0.10;;;5.10;99.90;;;;;;5065343;28;20232;-82
2023/04/14 02:27:09;;;;;;;0.10;0.10;;;5.00;99.90;;;;;;5062273;28;20246;-82
2023/04/14 02:29:39;;;;;;;0.10;0.10;;;5.00;99.90;;;;;;5066552;28;20395;-82
2023/04/14 02:32:10;;;;;;;0.10;0.10;;;5.00;99.90;;;;;;5060367;28;20213;-82
2023/04/14 02:34:42;;;;;;;0.10;0.10;;;5.00;99.90;;;;;;5064958;28;20278;-82
2023/04/14 02:37:14;;;;;;;0.10;0.10;;;4.90;99.90;;;;;;5065841;28;20619;-81
2023/04/14 02:39:42;;;;;;;0.10;0.10;;;4.60;99.90;;;;;;5068422;28;20181;-82
2023/04/14 02:42:14;;;;;;;0.00;0.00;;;4.50;99.90;;;;;;5060828;28;20663;-82
2023/04/14 02:44:59;;;;;;;0.10;0.10;;;4.30;99.90;;;;;;5067126;28;20271;-83
2023/04/14 02:47:29;;;;;;;0.10;0.10;;;4.30;99.90;;;;;;5065138;28;20261;-82
2023/04/14 02:49:57;;;;;;;0.10;0.10;;;4.10;99.90;;;;;;5067637;28;20215;-81
2023/04/14 02:52:28;;;;;;;0.10;0.10;;;3.90;99.90;;;;;;5061727;28;20921;-82
2023/04/14 02:54:55;;;;;;;0.10;0.10;;;3.80;99.90;;;;;;5059296;28;20215;-82
2023/04/14 02:57:21;;;;;;;0.10;0.10;;;3.70;99.90;;;;;;5065406;28;20185;-81
2023/04/14 02:59:48;;;;;;;0.10;0.10;;;3.80;99.90;;;;;;5065043;28;20189;-82
2023/04/14 03:02:15;;;;;;;0.10;0.10;;;4.00;99.90;;;;;;5060557;28;20205;-81
2023/04/14 03:04:41;;;;;;;0.10;0.10;;;4.10;99.90;;;;;;5062310;28;20593;-82
2023/04/14 03:07:10;;;;;;;0.10;0.10;;;4.20;99.90;;;;;;5065892;28;20185;-81
2023/04/14 03:09:36;;;;;;;0.10;0.10;;;4.40;99.90;;;;;;5065433;28;20173;-82
2023/04/14 03:12:04;;;;;;;0.10;0.10;;;4.50;99.90;;;;;;5064935;28;20185;-82
2023/04/14 03:14:31;;;;;;;0.10;0.10;;;4.60;99.90;;;;;;5060715;28;20726;-82
2023/04/14 03:16:57;;;;;;;0.10;0.10;;;4.60;99.90;;;;;;5062393;28;20268;-82
2023/04/14 03:19:24;;;;;;;0.10;0.10;;;4.70;99.90;;;;;;5066712;28;20204;-82
2023/04/14 03:21:50;;;;;;;0.10;0.10;;;4.60;99.90;;;;;;5064571;28;20188;-82
2023/04/14 03:24:23;;;;;;;0.10;0.10;;;4.70;99.90;;;;;;5064741;28;20262;-82
2023/04/14 03:26:54;;;;;;;0.10;0.10;;;4.50;99.90;;;;;;5061491;28;20188;-81
2023/04/14 03:29:23;;;;;;;0.10;0.10;;;4.50;99.90;;;;;;5059678;28;20186;-81
2023/04/14 03:31:50;;;;;;;0.10;0.10;;;4.60;99.90;;;;;;5064012;28;20197;-82
2023/04/14 03:34:18;;;;;;;0.10;0.10;;;4.60;99.90;;;;;;5063341;28;20299;-83
2023/04/14 03:36:45;;;;;;;0.10;0.10;;;4.70;99.90;;;;;;5064369;28;20186;-82
2023/04/14 03:39:13;;;;;;;0.10;0.10;;;4.70;99.90;;;;;;5064566;28;20276;-81
2023/04/14 03:41:42;;;;;;;0.10;0.10;;;4.70;99.90;;;;;;5064200;28;20643;-82
2023/04/14 03:44:14;;;;;;;0.10;0.10;;;4.40;99.90;;;;;;5062280;28;20260;-81
2023/04/14 03:46:40;;;;;;;0.10;0.10;;;4.30;99.90;;;;;;5056805;28;20276;-82
2023/04/14 03:49:10;;;;;;;0.10;0.10;;;4.40;99.90;;;;;;5059652;28;20305;-82
2023/04/14 03:51:38;;;;;;;0.10;0.10;;;4.40;99.90;;;;;;5061387;28;20191;-82
2023/04/14 03:54:05;;;;;;;0.10;0.10;;;4.40;99.90;;;;;;5065535;28;20218;-82
2023/04/14 03:56:37;;;;;;;0.10;0.10;;;4.50;99.90;;;;;;5064485;28;20185;-82
2023/04/14 03:59:03;;;;;;;0.10;0.10;;;4.50;99.90;;;;;;5062025;28;20184;-82
2023/04/14 04:01:31;;;;;;;0.10;0.10;;;4.50;99.90;;;;;;5061051;28;20823;-82
2023/04/14 04:03:59;;;;;;;0.10;0.10;;;4.50;99.90;;;;;;5063526;28;20682;-82
2023/04/14 04:06:26;;;;;;;0.10;0.10;;;4.50;99.90;;;;;;5064564;28;20185;-82
2023/04/14 04:08:52;;;;;;;0.10;0.10;;;4.50;99.90;;;;;;5060734;28;20204;-82
2023/04/14 04:11:20;;;;;;;0.10;0.10;;;4.50;99.90;;;;;;5057297;28;20234;-81
2023/04/14 04:13:48;;;;;;;0.10;0.10;;;4.60;99.90;;;;;;5065295;28;20213;-82
2023/04/14 04:16:14;;;;;;;0.10;0.10;;;4.50;99.90;;;;;;5063738;28;20196;-82
2023/04/14 04:18:45;;;;;;;0.10;0.10;;;4.50;99.90;;;;;;5064150;28;20185;-82
2023/04/14 04:21:13;;;;;;;0.10;0.10;;;4.40;99.90;;;;;;5061761;28;20193;-83
2023/04/14 04:23:41;;;;;;;0.10;0.10;;;4.20;99.90;;;;;;5062890;28;20280;-82
2023/04/14 04:26:07;;;;;;;0.10;0.10;;;4.00;99.90;;;;;;5057284;28;20208;-82
2023/04/14 04:28:33;;;;;;;0.10;0.10;;;4.10;99.90;;;;;;5062296;28;20251;-82
2023/04/14 04:31:00;;;;;;;0.10;0.10;;;4.20;99.90;;;;;;5059639;28;20185;-82
2023/04/14 04:33:27;;;;;;;0.10;0.10;;;4.20;99.90;;;;;;5063272;28;20221;-82
2023/04/14 04:35:55;;;;;;;0.10;0.10;;;4.20;99.90;;;;;;5063972;28;20235;-82
2023/04/14 04:38:20;;;;;;;0.10;0.10;;;4.30;99.90;;;;;;5059601;28;20212;-81
2023/04/14 04:40:48;;;;;;;0.10;0.10;;;4.30;99.90;;;;;;5059937;28;20604;-82
2023/04/14 04:43:17;;;;;;;0.10;0.10;;;4.30;99.90;;;;;;5063085;28;20199;-82
2023/04/14 04:45:46;;;;;;;0.00;0.00;;;4.50;99.90;;;;;;5061153;28;20281;-82
2023/04/14 04:48:11;;;;;;;0.10;0.10;;;4.50;99.90;;;;;;5058423;28;20254;-82
2023/04/14 04:50:37;;;;;;;0.10;0.10;;;4.60;99.90;;;;;;5058844;28;20745;-83
2023/04/14 04:53:02;;;;;;;0.10;0.10;;;4.60;99.90;;;;;;5060553;28;20205;-83
2023/04/14 04:55:28;;;;;;;0.10;0.10;;;4.60;99.90;;;;;;5057979;28;20229;-81
2023/04/14 04:57:53;;;;;;;0.10;0.10;;;4.70;99.90;;;;;;5066348;28;20193;-81
2023/04/14 05:00:21;;;;;;;0.10;0.10;;;4.70;99.90;;;;;;5063937;28;20216;-82
2023/04/14 05:02:47;;;;;;;0.10;0.10;;;4.70;99.90;;;;;;5062929;28;20210;-80
2023/04/14 05:05:13;;;;;;;0.10;0.10;;;4.80;99.90;;;;;;5063037;28;20223;-81
2023/04/14 05:07:38;;;;;;;0.10;0.10;;;4.80;99.90;;;;;;5066124;28;21076;-82
2023/04/14 05:10:04;;;;;;;0.10;0.10;;;4.60;99.90;;;;;;5061906;28;20197;-81
2023/04/14 05:12:30;;;;;;;0.10;0.10;;;4.40;99.90;;;;;;5062373;28;20202;-82
2023/04/14 05:14:55;;;;;;;0.10;0.10;;;4.50;99.90;;;;;;5058945;28;20196;-81
2023/04/14 05:17:21;;;;;;;0.10;0.10;;;4.20;99.90;;;;;;5061665;28;20184;-81
2023/04/14 05:19:46;;;;;;;0.10;0.10;;;4.10;99.90;;;;;;5055085;28;20177;-83
2023/04/14 05:22:12;;;;;;;0.10;0.10;;;4.20;99.90;;;;;;5057302;28;20183;-83
2023/04/14 05:24:38;;;;;;;0.00;0.00;;;4.40;99.90;;;;;;5064571;28;20209;-83
2023/04/14 05:27:03;;;;;;;0.10;0.10;;;4.60;99.90;;;;;;5060437;28;20280;-83
2023/04/14 05:29:29;;;;;;;0.10;0.10;;;4.80;99.90;;;;;;5056041;28;20272;-84
2023/04/14 05:31:54;;;;;;;0.10;0.10;;;4.90;99.90;;;;;;5059809;28;20216;-83
2023/04/14 05:34:20;;;;;;;0.10;0.10;;;5.00;99.90;;;;;;5062231;28;20261;-82
2023/04/14 05:36:46;;;;;;;0.10;0.10;;;5.10;99.90;;;;;;5063901;28;20706;-82
2023/04/14 05:39:12;;;;;;;0.10;0.10;;;5.30;99.90;;;;;;5060303;28;20193;-82
2023/04/14 05:41:37;;;;;;;0.10;0.10;;;5.40;99.90;;;;;;5060260;28;20254;-82
2023/04/14 05:44:04;;;;;;;0.10;0.10;;;5.40;99.90;;;;;;5061048;28;20213;-82
2023/04/14 05:46:30;;;;;;;0.10;0.10;;;5.50;99.90;;;;;;5061295;28;20192;-82
2023/04/14 05:48:56;;;;;;;0.10;0.10;;;5.70;99.90;;;;;;5078671;28;20542;-82
2023/04/14 05:51:22;;;;;;;0.10;0.10;;;5.80;99.90;;;;;;5061989;28;20705;-82
2023/04/14 05:53:47;;;;;;;0.10;0.10;;;5.90;99.90;;;;;;5057231;28;20226;-83
2023/04/14 05:56:13;;;;;;;0.10;0.10;;;6.00;99.90;;;;;;5060091;28;20620;-81
2023/04/14 05:58:38;;;;;;;0.07;0.07;;;6.00;99.90;;;;;;5062583;28;20182;-82
2023/04/14 06:01:05;;;;;;;0.10;0.10;;;6.10;99.90;;;;;;5064403;28;20320;-82
2023/04/14 06:03:30;;;;;;;0.10;0.10;;;6.10;99.90;;;;;;5059177;28;20226;-82
2023/04/14 06:05:56;;;;;;;0.10;0.10;;;6.20;99.90;;;;;;5064426;28;20190;-82
2023/04/14 06:08:21;;;;;;;0.10;0.10;;;6.20;99.90;;;;;;5057743;28;20656;-82
2023/04/14 06:10:47;;;;;;;0.10;0.10;;;6.20;99.90;;;;;;5059099;28;20187;-83
2023/04/14 06:13:12;;;;;;;0.10;0.10;;;6.20;99.90;;;;;;5060154;28;20205;-81
2023/04/14 06:15:38;;;;;;;0.10;0.10;;;6.30;99.90;;;;;;5063904;28;20260;-82
2023/04/14 06:18:03;;;;;;;0.10;0.10;;;6.40;99.90;;;;;;5058102;28;20195;-83
2023/04/14 06:20:30;;;;;;;0.07;0.07;;;6.50;99.90;;;;;;5057549;28;21365;-82
2023/04/14 06:22:56;;;;;;;0.10;0.10;;;6.60;99.90;;;;;;5059055;28;20191;-83
2023/04/14 06:25:21;;;;;;;0.10;0.10;;;6.60;99.90;;;;;;5059968;28;20720;-82
2023/04/14 06:27:47;;;;;;;0.10;0.10;;;6.70;99.90;;;;;;5058519;28;20190;-83
2023/04/14 06:30:15;;;;;;;0.00;0.00;;;6.70;99.90;;;;;;5058805;28;20195;-82
2023/04/14 06:32:41;;;;;;;0.10;0.10;;;6.80;99.90;;;;;;5060383;28;20187;-83
2023/04/14 06:35:07;;;;;;;0.10;0.10;;;6.80;99.90;;;;;;5059375;28;20221;-80
2023/04/14 06:37:32;;;;;;;0.10;0.10;;;6.80;99.90;;;;;;5061103;28;20196;-80
2023/04/14 06:39:58;;;;;;;0.10;0.10;;;6.90;99.90;;;;;;5057436;28;20188;-81
2023/04/14 06:42:24;;;;;;;0.10;0.10;;;7.00;99.90;;;;;;5056073;28;20181;-80
2023/04/14 06:44:49;;;;;;;0.10;0.10;;;7.10;99.90;;;;;;5056717;28;20214;-80
2023/04/14 06:47:21;;;;;;;0.10;0.10;;;7.30;99.90;;;;;;5056251;28;20191;-80
2023/04/14 06:49:46;;;;;;;0.10;0.10;;;7.40;99.90;;;;;;5060377;28;20187;-80
2023/04/14 06:52:12;;;;;;;0.07;0.07;;;7.60;99.90;;;;;;5062960;28;20180;-80
2023/04/14 06:54:37;;;;;;;0.10;0.10;;;7.80;99.90;;;;;;5059533;28;20238;-81
2023/04/14 06:57:03;;;;;;;0.10;0.10;;;7.90;99.90;;;;;;5066103;28;20279;-80
2023/04/14 06:59:29;;;;;;;0.10;0.10;;;8.00;99.90;;;;;;5063998;28;20311;-80
2023/04/14 07:01:55;;;;;;;0.10;0.10;;;8.20;99.90;;;;;;5065818;28;20228;-80
2023/04/14 07:04:21;;;;;;;0.10;0.10;;;8.30;99.90;;;;;;5067269;28;20211;-80
2023/04/14 07:06:47;;;;;;;0.10;0.10;;;8.50;99.90;;;;;;5061812;28;20246;-80
2023/04/14 07:09:24;;;;;;;0.10;0.10;;;8.70;99.90;;;;;;5057955;28;20197;-85
2023/04/14 07:11:51;;;;;;;0.10;0.10;;;8.80;99.90;;;;;;5064708;28;20202;-85
2023/04/14 07:14:17;;;;;;;0.10;0.10;;;9.00;99.90;;;;;;5060767;28;20224;-84
2023/04/14 07:16:42;;;;;;;0.10;0.10;;;9.20;99.90;;;;;;5058095;28;20192;-85
2023/04/14 07:19:09;;;;;;;0.10;0.10;;;9.40;99.90;;;;;;5062368;28;20192;-84
2023/04/14 07:21:36;;;;;;;0.10;0.10;;;9.50;99.90;;;;;;5060613;28;20204;-85
2023/04/14 07:24:03;;;;;;;0.10;0.10;;;9.60;99.90;;;;;;5064804;28;20222;-85
2023/04/14 07:26:28;;;;;;;0.10;0.10;;;9.70;99.90;;;;;;5061086;28;20181;-85
2023/04/14 07:28:55;;;;;;;0.10;0.10;;;9.90;99.90;;;;;;5060013;28;20205;-84
2023/04/14 07:31:21;;;;;;;0.10;0.10;;;10.00;99.90;;;;;;5063516;28;20195;-83
2023/04/14 07:33:46;;;;;;;0.10;0.10;;;10.00;99.90;;;;;;5062643;28;20410;-81
2023/04/14 07:36:12;;;;;;;0.10;0.10;;;10.30;99.90;;;;;;5055463;28;20181;-81
2023/04/14 07:38:37;;;;;;;0.10;0.10;;;10.40;99.90;;;;;;5055165;28;20655;-82
2023/04/14 07:41:05;;;;;;;0.10;0.10;;;10.50;99.90;;;;;;5062140;28;20200;-82
2023/04/14 07:43:34;;;;;;;0.10;0.10;;;10.70;99.90;;;;;;5057927;28;20219;-82
2023/04/14 07:46:05;;;;;;;0.10;0.10;;;10.90;99.90;;;;;;5060364;28;20192;-82
2023/04/14 07:48:32;;;;;;;0.10;0.10;;;10.90;99.90;;;;;;5056830;28;20192;-82
2023/04/14 07:50:57;;;;;;;0.10;0.10;;;10.80;99.90;;;;;;5059357;28;20275;-82
2023/04/14 07:53:23;;;;;;;0.10;0.10;;;11.10;99.90;;;;;;5060729;28;20213;-86
2023/04/14 07:55:49;;;;;;;0.10;0.10;;;11.20;99.90;;;;;;5060452;28;20192;-82
2023/04/14 07:58:14;;;;;;;0.10;0.10;;;11.40;99.90;;;;;;5059453;28;20271;-81
2023/04/14 08:00:40;;;;;;;0.10;0.10;;;11.50;99.90;;;;;;5061085;28;20481;-81
2023/04/14 08:03:06;;;;;;;0.10;0.10;;;11.50;99.90;;;;;;5060552;28;20205;-81
2023/04/14 08:05:32;;;;;;;0.00;0.00;;;11.60;99.90;;;;;;5056671;28;20219;-81
2023/04/14 08:07:58;;;;;;;0.10;0.10;;;11.60;99.90;;;;;;5062160;28;20239;-81
2023/04/14 08:10:24;;;;;;;0.10;0.10;;;11.60;99.90;;;;;;5062822;28;20225;-81
2023/04/14 08:12:50;;;;;;;0.10;0.10;;;11.00;99.90;;;;;;5058382;28;20213;-81
2023/04/14 08:15:15;;;;;;;0.10;0.10;;;11.40;99.90;;;;;;5062894;28;20914;-81
2023/04/14 08:17:41;;;;;;;0.10;0.10;;;11.60;99.90;;;;;;5062298;28;20303;-81
2023/04/14 08:20:07;;;;;;;0.10;0.10;;;11.90;99.90;;;;;;5060132;28;20191;-81
2023/04/14 08:22:33;;;;;;;0.10;0.10;;;12.20;99.90;;;;;;5062227;28;20192;-81
2023/04/14 08:24:59;;;;;;;0.10;0.10;;;11.70;99.90;;;;;;5062501;28;20213;-81
2023/04/14 08:27:24;;;;;;;0.10;0.10;;;11.50;99.90;;;;;;5058258;28;20244;-81
2023/04/14 08:29:50;;;;;;;0.10;0.10;;;11.90;99.90;;;;;;5055875;28;20286;-81
2023/04/14 08:32:16;;;;;;;0.10;0.10;;;11.60;99.90;;;;;;5059137;28;20302;-81
2023/04/14 08:34:41;;;;;;;0.10;0.10;;;11.90;99.90;;;;;;5063385;28;20215;-81
2023/04/14 08:37:07;;;;;;;0.10;0.10;;;11.30;99.90;;;;;;5061728;28;20188;-81
2023/04/14 08:39:32;;;;;;;0.10;0.10;;;11.70;99.90;;;;;;5067760;28;20248;-82
2023/04/14 08:41:58;;;;;;;0.10;0.10;;;11.90;99.90;;;;;;5064136;28;20669;-81
2023/04/14 08:44:24;;;;;;;0.10;0.10;;;12.30;99.90;;;;;;5060439;28;20270;-80
2023/04/14 08:46:53;;;;;;;0.10;0.10;;;12.20;99.90;;;;;;5062366;28;20193;-82
2023/04/14 08:49:38;;;;;;;0.10;0.10;;;11.80;99.90;;;;;;5062404;28;20275;-81
2023/04/14 08:52:08;;;;;;;0.10;0.10;;;11.80;99.90;;;;;;5055890;28;20192;-84
2023/04/14 08:54:34;;;;;;;0.10;0.10;;;12.00;99.90;;;;;;5061876;28;20223;-81
2023/04/14 08:57:01;;;;;;;0.10;0.10;;;12.60;99.90;;;;;;5058503;28;20267;-82
2023/04/14 08:59:27;;;;;;;0.10;0.10;;;12.70;99.90;;;;;;5058167;28;20192;-81
2023/04/14 09:01:54;;;;;;;0.10;0.10;;;13.10;99.90;;;;;;5059281;28;20197;-82
2023/04/14 09:04:21;;;;;;;0.10;0.10;;;12.90;99.90;;;;;;5055253;28;20245;-81
2023/04/14 09:06:47;;;;;;;0.10;0.10;;;12.00;99.90;;;;;;5057251;28;20249;-81
2023/04/14 09:09:14;;;;;;;0.10;0.10;;;12.70;99.90;;;;;;5061360;28;20205;-81
2023/04/14 09:11:40;;;;;;;0.10;0.10;;;13.20;99.90;;;;;;5061615;28;20212;-81
2023/04/14 09:14:06;;;;;;;0.10;0.10;;;13.10;99.90;;;;;;5060035;28;20216;-81
2023/04/14 09:16:32;;;;;;;0.10;0.10;;;13.60;99.90;;;;;;5060465;28;20192;-81
2023/04/14 09:18:58;;;;;;;0.10;0.10;;;13.50;99.90;;;;;;5059648;28;20196;-82
2023/04/14 09:21:26;;;;;;;0.10;0.10;;;13.50;99.90;;;;;;5059884;28;20199;-81
2023/04/14 09:23:51;;;;;;;0.10;0.10;;;13.10;99.90;;;;;;5061564;28;20207;-82
2023/04/14 09:26:17;;;;;;;0.10;0.10;;;13.40;99.90;;;;;;5058636;28;20202;-82
2023/04/14 09:28:43;;;;;;;0.00;0.00;;;12.50;99.90;;;;;;5057594;28;20194;-81
2023/04/14 09:31:09;;;;;;;0.10;0.10;;;13.20;99.90;;;;;;5058883;28;20192;-82
2023/04/14 09:33:42;;;;;;;0.10;0.10;;;13.10;99.90;;;;;;5062357;28;20212;-82
2023/04/14 09:36:17;;;;;;;0.10;0.10;;;12.30;99.90;;;;;;5061993;28;20184;-81
2023/04/14 09:38:43;;;;;;;0.10;0.10;;;13.00;99.90;;;;;;5057244;28;20313;-82
2023/04/14 09:41:15;;;;;;;0.10;0.10;;;13.50;99.90;;;;;;5058300;28;20234;-82
2023/04/14 09:43:41;;;;;;;0.10;0.10;;;13.60;99.90;;;;;;5060661;28;20210;-81
2023/04/14 09:46:08;;;;;;;0.10;0.10;;;14.10;99.90;;;;;;5058281;28;20188;-81
2023/04/14 09:48:36;;;;;;;0.10;0.10;;;14.30;99.90;;;;;;5059503;28;20275;-82
2023/04/14 09:51:08;;;;;;;0.10;0.10;;;13.50;99.90;;;;;;5061963;28;20181;-81
2023/04/14 09:53:39;;;;;;;0.10;0.10;;;13.20;99.90;;;;;;5059609;28;20212;-84
2023/04/14 09:56:10;;;;;;;0.10;0.10;;;13.60;99.90;;;;;;5061042;28;20197;-84
2023/04/14 09:58:44;;;;;;;0.10;0.10;;;14.10;99.90;;;;;;5061393;28;20183;-84
2023/04/14 10:01:15;;;;;;;0.10;0.10;;;13.90;99.90;;;;;;5063170;28;20657;-82
2023/04/14 10:03:43;;;;;;;0.10;0.10;;;14.20;99.90;;;;;;5063107;28;20309;-81
2023/04/14 10:06:15;;;;;;;0.10;0.10;;;14.20;99.90;;;;;;5064768;28;20222;-82
2023/04/14 10:08:45;;;;;;;0.10;0.10;;;14.70;99.90;;;;;;5062706;28;20181;-81
2023/04/14 10:11:23;;;;;;;0.10;0.10;;;15.20;99.90;;;;;;5065053;28;20176;-82
2023/04/14 10:13:57;;;;;;;0.10;0.10;;;15.60;99.90;;;;;;5061107;28;20222;-82
2023/04/14 10:16:23;;;;;;;0.10;0.10;;;15.70;99.90;;;;;;5060095;28;20522;-82
2023/04/14 10:18:50;;;;;;;0.10;0.10;;;15.80;99.90;;;;;;5062671;28;20252;-82
2023/04/14 10:21:16;;;;;;;0.10;0.10;;;16.00;99.90;;;;;;5064285;28;21062;-83
2023/04/14 10:23:43;;;;;;;0.10;0.10;;;15.40;99.90;;;;;;5063656;28;20204;-82
2023/04/14 10:26:11;;;;;;;0.10;0.10;;;15.50;99.90;;;;;;5058779;28;20189;-83
2023/04/14 10:28:39;;;;;;;0.10;0.10;;;15.80;99.90;;;;;;5065532;28;20234;-82
2023/04/14 10:31:10;;;;;;;0.10;0.10;;;16.10;99.90;;;;;;5062290;28;20815;-82
2023/04/14 10:33:38;;;;;;;0.10;0.10;;;16.20;99.90;;;;;;5062461;28;20240;-82
2023/04/14 10:36:04;;;;;;;0.10;0.10;;;16.00;99.90;;;;;;5065250;28;20188;-82
2023/04/14 10:38:45;;;;;;;0.10;0.10;;;16.20;99.90;;;;;;5068042;28;20174;-82
2023/04/14 10:41:11;;;;;;;0.10;0.10;;;16.00;99.90;;;;;;5062445;28;20208;-83
2023/04/14 10:43:38;;;;;;;0.10;0.10;;;15.30;99.90;;;;;;5066865;28;20213;-82
2023/04/14 10:46:06;;;;;;;0.10;0.10;;;15.60;99.90;;;;;;5067920;28;20188;-83
2023/04/14 10:48:34;;;;;;;0.10;0.10;;;15.50;99.90;;;;;;5064500;28;20191;-83
2023/04/14 10:51:03;;;;;;;0.10;0.10;;;16.10;99.90;;;;;;5066793;28;20242;-82
2023/04/14 10:53:49;;;;;;;0.10;0.10;;;16.20;99.90;;;;;;5068265;28;20200;-82
2023/04/14 10:56:14;;;;;;;0.10;0.10;;;16.60;99.90;;;;;;5065202;28;20191;-83
2023/04/14 10:58:52;;;;;;;0.10;0.10;;;16.70;99.90;;;;;;5061268;28;20185;-82
2023/04/14 11:01:25;;;;;;;0.10;0.10;;;16.20;99.90;;;;;;5068446;28;20193;-82
2023/04/14 11:03:53;;;;;;;0.10;0.10;;;16.60;99.90;;;;;;5058810;28;20217;-82
2023/04/14 11:06:48;;;;;;;0.10;0.10;;;16.90;99.90;;;;;;5065998;28;20234;-83
2023/04/14 11:09:31;;;;;;;0.10;0.10;;;16.50;99.90;;;;;;5067828;28;20247;-82
2023/04/14 11:12:02;;;;;;;0.10;0.10;;;16.90;99.90;;;;;;5067693;28;20189;-82
2023/04/14 11:14:34;;;;;;;0.10;0.10;;;16.90;99.90;;;;;;5058899;28;20216;-83
2023/04/14 11:17:01;;;;;;;0.10;0.10;;;17.10;99.90;;;;;;5068743;28;20173;-82
2023/04/14 11:19:28;;;;;;;0.10;0.10;;;16.90;99.90;;;;;;5074498;28;20177;-82
2023/04/14 11:21:54;;;;;;;0.10;0.10;;;17.00;99.90;;;;;;5069966;28;20609;-82
2023/04/14 11:24:20;;;;;;;0.10;0.10;;;17.20;99.90;;;;;;5068014;28;20197;-83
2023/04/14 11:26:46;;;;;;;0.10;0.10;;;17.00;99.90;;;;;;5063925;28;20284;-82
2023/04/14 11:29:12;;;;;;;0.10;0.10;;;16.90;99.90;;;;;;5060281;28;20293;-83
2023/04/14 11:31:38;;;;;;;0.10;0.10;;;17.20;99.90;;;;;;5069385;28;20189;-82
2023/04/14 11:34:05;;;;;;;0.10;0.10;;;17.30;99.90;;;;;;5062565;28;20314;-83
2023/04/14 11:36:35;;;;;;;0.10;0.10;;;17.60;99.90;;;;;;5064653;28;20177;-83
2023/04/14 11:39:01;;;;;;;0.10;0.10;;;17.60;99.90;;;;;;5080110;28;20658;-83
2023/04/14 11:41:26;;;;;;;0.10;0.10;;;17.20;99.90;;;;;;5064458;28;20208;-83
2023/04/14 11:43:53;;;;;;;0.10;0.10;;;17.40;99.90;;;;;;5063195;28;20227;-83
2023/04/14 11:46:20;;;;;;;0.10;0.10;;;17.00;99.90;;;;;;5067570;28;20529;-82
2023/04/14 11:48:45;;;;;;;0.10;0.10;;;16.70;99.90;;;;;;5066476;28;20181;-82
2023/04/14 11:51:11;;;;;;;0.10;0.10;;;16.30;99.90;;;;;;5065185;28;20220;-83
2023/04/14 11:53:39;;;;;;;0.10;0.10;;;16.50;99.90;;;;;;5063923;28;20208;-83
2023/04/14 11:56:07;;;;;;;0.10;0.10;;;16.80;99.90;;;;;;5068683;28;20242;-83
2023/04/14 11:58:33;;;;;;;0.10;0.10;;;17.10;99.90;;;;;;5065819;28;20182;-82
2023/04/14 12:00:59;;;;;;;0.10;0.10;;;17.40;99.90;;;;;;5067924;28;20206;-83
2023/04/14 12:03:27;;;;;;;0.10;0.10;;;16.80;99.90;;;;;;5064885;28;20280;-82
2023/04/14 12:06:00;;;;;;;0.10;0.10;;;17.00;99.90;;;;;;5066882;28;20189;-82
2023/04/14 12:08:27;;;;;;;0.10;0.10;;;17.10;99.90;;;;;;5067676;28;20204;-82
2023/04/14 12:10:55;;;;;;;0.10;0.10;;;17.20;99.90;;;;;;5062148;28;20590;-83
2023/04/14 12:13:20;;;;;;;0.10;0.10;;;17.50;99.90;;;;;;5064958;28;20205;-83
2023/04/14 12:15:46;;;;;;;0.10;0.10;;;17.40;99.90;;;;;;5061596;28;20271;-82
2023/04/14 12:18:15;;;;;;;0.10;0.10;;;17.40;99.90;;;;;;5062842;28;20283;-83
2023/04/14 12:20:46;;;;;;;0.10;0.10;;;17.90;99.90;;;;;;5063260;28;20193;-83
2023/04/14 12:23:12;;;;;;;0.10;0.10;;;18.00;99.90;;;;;;5065280;28;20192;-83
2023/04/14 12:25:38;;;;;;;0.10;0.10;;;18.40;99.90;;;;;;5063378;28;20181;-83
2023/04/14 12:28:07;;;;;;;0.10;0.10;;;18.70;99.90;;;;;;5066085;28;20197;-83
2023/04/14 12:30:34;;;;;;;0.10;0.10;;;19.00;99.90;;;;;;5060315;28;20231;-83
2023/04/14 12:33:11;;;;;;;0.10;0.10;;;19.00;99.90;;;;;;5062967;28;20228;-82
2023/04/14 12:35:37;;;;;;;0.10;0.10;;;19.20;99.90;;;;;;5068242;28;20219;-82
2023/04/14 12:38:13;;;;;;;0.10;0.10;;;19.20;99.90;;;;;;5068061;28;20185;-82
2023/04/14 12:40:44;;;;;;;0.10;0.10;;;19.30;99.90;;;;;;5069407;28;20211;-82
2023/04/14 12:43:11;;;;;;;0.10;0.10;;;18.90;99.90;;;;;;5066590;28;20240;-84
2023/04/14 12:45:47;;;;;;;0.10;0.10;;;17.70;99.90;;;;;;5064435;28;20181;-83
2023/04/14 12:48:15;;;;;;;0.10;0.10;;;18.10;99.90;;;;;;5065357;28;20591;-83
2023/04/14 12:50:41;;;;;;;0.10;0.10;;;18.60;99.90;;;;;;5063845;28;21203;-83
2023/04/14 12:53:27;;;;;;;0.10;0.10;;;18.10;99.90;;;;;;5062957;28;20209;-83
2023/04/14 12:56:26;;;;;;;0.10;0.10;;;18.20;99.90;;;;;;5064262;28;20181;-84